sensor_id;sensor_type;location;lat;lon;timestamp;P1;durP1;ratioP1;P2;durP2;ratioP2
22863;SDS011;11599;49.882;8.680;2023-04-16T00:06:17;11.13;;;5.20;;
22863;SDS011;11599;49.882;8.680;2023-04-16T00:16:39;10.63;;;5.30;;
22863;SDS011;11599;49.882;8.680;2023-04-16T00:27:02;11.53;;;6.00;;
22863;SDS011;11599;49.882;8.680;2023-04-16T00:37:23;10.98;;;6.50;;
22863;SDS011;11599;49.882;8.680;2023-04-16T00:47:46;11.20;;;5.97;;
22863;SDS011;11599;49.882;8.680;2023-04-16T00:58:08;14.20;;;7.17;;
22863;SDS011;11599;49.882;8.680;2023-04-16T01:08:30;13.03;;;7.17;;
22863;SDS011;11599;49.882;8.680;2023-04-16T01:18:52;13.90;;;7.00;;
22863;SDS011;11599;49.882;8.680;2023-04-16T01:29:15;15.13;;;7.40;;
22863;SDS011;11599;49.882;8.680;2023-04-16T01:39:36;12.85;;;6.70;;
22863;SDS011;11599;49.882;8.680;2023-04-16T01:49:59;15.48;;;6.85;;
22863;SDS011;11599;49.882;8.680;2023-04-16T02:00:20;12.10;;;6.68;;
22863;SDS011;11599;49.882;8.680;2023-04-16T02:10:45;10.13;;;6.00;;
22863;SDS011;11599;49.882;8.680;2023-04-16T02:21:07;10.27;;;6.10;;
22863;SDS011;11599;49.882;8.680;2023-04-16T02:31:30;10.73;;;6.63;;
22863;SDS011;11599;49.882;8.680;2023-04-16T02:41:52;10.13;;;6.13;;
22863;SDS011;11599;49.882;8.680;2023-04-16T02:52:15;11.23;;;6.32;;
22863;SDS011;11599;49.882;8.680;2023-04-16T03:02:37;11.63;;;6.50;;
22863;SDS011;11599;49.882;8.680;2023-04-16T03:12:59;12.98;;;6.68;;
22863;SDS011;11599;49.882;8.680;2023-04-16T03:23:21;10.27;;;6.23;;
22863;SDS011;11599;49.882;8.680;2023-04-16T03:33:44;9.77;;;6.55;;
22863;SDS011;11599;49.882;8.680;2023-04-16T03:44:07;10.30;;;5.80;;
22863;SDS011;11599;49.882;8.680;2023-04-16T03:54:30;12.93;;;7.50;;
22863;SDS011;11599;49.882;8.680;2023-04-16T04:05:03;13.57;;;7.83;;
22863;SDS011;11599;49.882;8.680;2023-04-16T04:15:27;13.50;;;8.30;;
22863;SDS011;11599;49.882;8.680;2023-04-16T04:25:49;11.95;;;7.90;;
22863;SDS011;11599;49.882;8.680;2023-04-16T04:36:12;14.90;;;8.30;;
22863;SDS011;11599;49.882;8.680;2023-04-16T04:46:33;16.20;;;7.47;;
22863;SDS011;11599;49.882;8.680;2023-04-16T04:56:57;15.30;;;9.10;;
22863;SDS011;11599;49.882;8.680;2023-04-16T05:07:20;13.63;;;8.52;;
22863;SDS011;11599;49.882;8.680;2023-04-16T05:17:43;15.57;;;9.38;;
22863;SDS011;11599;49.882;8.680;2023-04-16T05:28:05;14.73;;;8.97;;
22863;SDS011;11599;49.882;8.680;2023-04-16T05:38:28;17.70;;;9.13;;
22863;SDS011;11599;49.882;8.680;2023-04-16T05:48:49;17.53;;;9.43;;
22863;SDS011;11599;49.882;8.680;2023-04-16T05:59:14;18.53;;;9.40;;
22863;SDS011;11599;49.882;8.680;2023-04-16T06:09:36;14.85;;;8.82;;
22863;SDS011;11599;49.882;8.680;2023-04-16T06:19:58;16.73;;;7.63;;
22863;SDS011;11599;49.882;8.680;2023-04-16T06:30:20;18.03;;;7.73;;
22863;SDS011;11599;49.882;8.680;2023-04-16T06:40:43;16.75;;;9.45;;
22863;SDS011;11599;49.882;8.680;2023-04-16T06:51:04;17.07;;;8.03;;
22863;SDS011;11599;49.882;8.680;2023-04-16T07:01:27;20.07;;;8.53;;
22863;SDS011;11599;49.882;8.680;2023-04-16T07:11:50;18.97;;;8.23;;
22863;SDS011;11599;49.882;8.680;2023-04-16T07:22:13;15.17;;;7.80;;
22863;SDS011;11599;49.882;8.680;2023-04-16T07:32:38;17.10;;;10.13;;
22863;SDS011;11599;49.882;8.680;2023-04-16T07:43:02;27.63;;;12.53;;
22863;SDS011;11599;49.882;8.680;2023-04-16T07:53:24;18.55;;;10.77;;
22863;SDS011;11599;49.882;8.680;2023-04-16T08:03:47;14.80;;;8.43;;
22863;SDS011;11599;49.882;8.680;2023-04-16T08:14:08;15.60;;;9.80;;
22863;SDS011;11599;49.882;8.680;2023-04-16T08:24:31;15.73;;;9.60;;
22863;SDS011;11599;49.882;8.680;2023-04-16T08:34:53;14.43;;;8.98;;
22863;SDS011;11599;49.882;8.680;2023-04-16T08:45:16;13.38;;;8.35;;
22863;SDS011;11599;49.882;8.680;2023-04-16T08:55:38;17.80;;;9.55;;
22863;SDS011;11599;49.882;8.680;2023-04-16T09:06:01;21.47;;;10.10;;
22863;SDS011;11599;49.882;8.680;2023-04-16T09:16:24;20.40;;;10.13;;
22863;SDS011;11599;49.882;8.680;2023-04-16T09:26:48;18.90;;;8.43;;
22863;SDS011;11599;49.882;8.680;2023-04-16T09:37:14;20.30;;;8.80;;
22863;SDS011;11599;49.882;8.680;2023-04-16T09:47:41;14.03;;;7.87;;
22863;SDS011;11599;49.882;8.680;2023-04-16T09:58:03;17.00;;;8.47;;
22863;SDS011;11599;49.882;8.680;2023-04-16T10:08:26;15.67;;;8.43;;
22863;SDS011;11599;49.882;8.680;2023-04-16T10:18:48;16.33;;;9.90;;
22863;SDS011;11599;49.882;8.680;2023-04-16T10:29:11;14.57;;;8.30;;
22863;SDS011;11599;49.882;8.680;2023-04-16T10:39:34;15.23;;;10.00;;
22863;SDS011;11599;49.882;8.680;2023-04-16T10:49:57;18.07;;;9.97;;
22863;SDS011;11599;49.882;8.680;2023-04-16T11:00:22;16.58;;;10.45;;
22863;SDS011;11599;49.882;8.680;2023-04-16T11:10:45;15.23;;;9.57;;
22863;SDS011;11599;49.882;8.680;2023-04-16T11:21:07;14.27;;;8.37;;
22863;SDS011;11599;49.882;8.680;2023-04-16T11:31:30;14.23;;;7.97;;
22863;SDS011;11599;49.882;8.680;2023-04-16T11:41:51;18.00;;;9.50;;
22863;SDS011;11599;49.882;8.680;2023-04-16T11:52:15;19.00;;;9.60;;
22863;SDS011;11599;49.882;8.680;2023-04-16T12:02:45;16.80;;;9.07;;
22863;SDS011;11599;49.882;8.680;2023-04-16T12:13:11;15.97;;;8.77;;
22863;SDS011;11599;49.882;8.680;2023-04-16T12:23:36;16.67;;;9.03;;
22863;SDS011;11599;49.882;8.680;2023-04-16T12:34:01;16.50;;;9.33;;
22863;SDS011;11599;49.882;8.680;2023-04-16T12:44:23;15.00;;;8.90;;
22863;SDS011;11599;49.882;8.680;2023-04-16T12:54:46;17.43;;;9.07;;
22863;SDS011;11599;49.882;8.680;2023-04-16T13:05:07;15.17;;;8.87;;
22863;SDS011;11599;49.882;8.680;2023-04-16T13:15:30;14.87;;;8.77;;
22863;SDS011;11599;49.882;8.680;2023-04-16T13:25:52;16.53;;;8.83;;
22863;SDS011;11599;49.882;8.680;2023-04-16T13:36:15;14.17;;;8.33;;
22863;SDS011;11599;49.882;8.680;2023-04-16T13:46:36;17.20;;;10.00;;
22863;SDS011;11599;49.882;8.680;2023-04-16T13:56:59;18.15;;;11.77;;
22863;SDS011;11599;49.882;8.680;2023-04-16T14:07:20;18.77;;;10.73;;
22863;SDS011;11599;49.882;8.680;2023-04-16T14:17:46;17.63;;;10.13;;
22863;SDS011;11599;49.882;8.680;2023-04-16T14:28:08;18.10;;;11.20;;
22863;SDS011;11599;49.882;8.680;2023-04-16T14:38:31;17.70;;;10.50;;
22863;SDS011;11599;49.882;8.680;2023-04-16T14:48:52;18.40;;;11.70;;
22863;SDS011;11599;49.882;8.680;2023-04-16T14:59:15;21.23;;;11.73;;
22863;SDS011;11599;49.882;8.680;2023-04-16T15:09:39;20.87;;;11.80;;
22863;SDS011;11599;49.882;8.680;2023-04-16T15:20:02;19.80;;;11.63;;
22863;SDS011;11599;49.882;8.680;2023-04-16T15:30:27;20.63;;;11.90;;
22863;SDS011;11599;49.882;8.680;2023-04-16T15:40:50;20.20;;;12.50;;
22863;SDS011;11599;49.882;8.680;2023-04-16T15:51:11;24.33;;;13.77;;
22863;SDS011;11599;49.882;8.680;2023-04-16T16:01:39;23.65;;;14.48;;
22863;SDS011;11599;49.882;8.680;2023-04-16T16:12:01;31.10;;;14.90;;
22863;SDS011;11599;49.882;8.680;2023-04-16T16:32:52;23.88;;;14.88;;
22863;SDS011;11599;49.882;8.680;2023-04-16T17:25:24;19.95;;;13.05;;
22863;SDS011;11599;49.882;8.680;2023-04-16T17:35:45;23.25;;;13.40;;
22863;SDS011;11599;49.882;8.680;2023-04-16T17:46:09;34.60;;;21.70;;
22863;SDS011;11599;49.882;8.680;2023-04-16T17:56:31;26.23;;;15.97;;
22863;SDS011;11599;49.882;8.680;2023-04-16T18:06:54;22.20;;;13.87;;
22863;SDS011;11599;49.882;8.680;2023-04-16T18:17:15;21.63;;;13.53;;
22863;SDS011;11599;49.882;8.680;2023-04-16T18:27:38;18.10;;;10.53;;
22863;SDS011;11599;49.882;8.680;2023-04-16T18:38:09;18.77;;;12.20;;
22863;SDS011;11599;49.882;8.680;2023-04-16T18:48:33;18.50;;;12.50;;
22863;SDS011;11599;49.882;8.680;2023-04-16T18:58:55;19.73;;;12.83;;
22863;SDS011;11599;49.882;8.680;2023-04-16T19:09:26;19.27;;;10.83;;
22863;SDS011;11599;49.882;8.680;2023-04-16T19:19:48;18.57;;;10.47;;
22863;SDS011;11599;49.882;8.680;2023-04-16T19:30:12;19.08;;;12.70;;
22863;SDS011;11599;49.882;8.680;2023-04-16T19:40:45;23.67;;;13.75;;
22863;SDS011;11599;49.882;8.680;2023-04-16T19:51:09;26.10;;;14.68;;
22863;SDS011;11599;49.882;8.680;2023-04-16T20:01:30;24.00;;;14.23;;
22863;SDS011;11599;49.882;8.680;2023-04-16T20:11:53;22.13;;;14.40;;
22863;SDS011;11599;49.882;8.680;2023-04-16T20:22:16;22.37;;;13.97;;
22863;SDS011;11599;49.882;8.680;2023-04-16T20:32:39;20.80;;;12.10;;
22863;SDS011;11599;49.882;8.680;2023-04-16T20:43:00;24.07;;;14.30;;
22863;SDS011;11599;49.882;8.680;2023-04-16T20:53:23;22.27;;;14.47;;
22863;SDS011;11599;49.882;8.680;2023-04-16T21:03:44;24.80;;;15.27;;
22863;SDS011;11599;49.882;8.680;2023-04-16T21:14:07;24.10;;;15.10;;
22863;SDS011;11599;49.882;8.680;2023-04-16T21:24:30;25.90;;;15.37;;
22863;SDS011;11599;49.882;8.680;2023-04-16T21:34:52;23.60;;;14.50;;
22863;SDS011;11599;49.882;8.680;2023-04-16T21:45:14;26.90;;;14.70;;
22863;SDS011;11599;49.882;8.680;2023-04-16T21:55:36;24.53;;;14.40;;
22863;SDS011;11599;49.882;8.680;2023-04-16T22:05:59;23.48;;;14.25;;
22863;SDS011;11599;49.882;8.680;2023-04-16T22:16:22;25.17;;;14.48;;
22863;SDS011;11599;49.882;8.680;2023-04-16T22:26:43;23.10;;;13.90;;
22863;SDS011;11599;49.882;8.680;2023-04-16T22:37:06;23.08;;;14.05;;
22863;SDS011;11599;49.882;8.680;2023-04-16T22:47:28;25.07;;;14.90;;
22863;SDS011;11599;49.882;8.680;2023-04-16T22:57:50;23.70;;;14.23;;
22863;SDS011;11599;49.882;8.680;2023-04-16T23:08:12;23.17;;;14.23;;
22863;SDS011;11599;49.882;8.680;2023-04-16T23:18:34;21.40;;;13.07;;
22863;SDS011;11599;49.882;8.680;2023-04-16T23:28:56;22.00;;;13.48;;
22863;SDS011;11599;49.882;8.680;2023-04-16T23:39:28;21.05;;;13.32;;
22863;SDS011;11599;49.882;8.680;2023-04-16T23:49:49;23.57;;;13.30;;
